sensor_id;sensor_type;location;lat;lon;timestamp;pressure;altitude;pressure_sealevel;temperature;humidity
43161;BME280;40968;52.342;5.528;2023-04-25T00:00:05;101030.28;;;6.26;73.02
43161;BME280;40968;52.342;5.528;2023-04-25T00:02:32;101068.16;;;6.64;73.54
43161;BME280;40968;52.342;5.528;2023-04-25T00:05:00;101071.75;;;6.63;73.17
43161;BME280;40968;52.342;5.528;2023-04-25T00:07:31;101077.09;;;6.63;73.63
43161;BME280;40968;52.342;5.528;2023-04-25T00:09:58;100977.31;;;6.04;73.17
43161;BME280;40968;52.342;5.528;2023-04-25T00:12:25;100960.44;;;5.87;72.03
43161;BME280;40968;52.342;5.528;2023-04-25T00:14:53;101070.53;;;6.53;72.32
43161;BME280;40968;52.342;5.528;2023-04-25T00:17:22;101071.75;;;6.47;71.14
43161;BME280;40968;52.342;5.528;2023-04-25T00:19:49;101084.16;;;6.47;71.34
43161;BME280;40968;52.342;5.528;2023-04-25T00:22:16;101025.69;;;6.12;71.95
43161;BME280;40968;52.342;5.528;2023-04-25T00:24:44;101089.50;;;6.47;71.59
43161;BME280;40968;52.342;5.528;2023-04-25T00:27:11;100983.91;;;5.79;71.56
43161;BME280;40968;52.342;5.528;2023-04-25T00:29:37;101055.34;;;6.22;71.64
43161;BME280;40968;52.342;5.528;2023-04-25T00:32:04;100980.78;;;5.71;71.55
43161;BME280;40968;52.342;5.528;2023-04-25T00:34:30;100880.34;;;5.07;71.26
43161;BME280;40968;52.342;5.528;2023-04-25T00:36:57;101048.41;;;6.02;71.38
43161;BME280;40968;52.342;5.528;2023-04-25T00:39:24;101024.09;;;5.90;71.34
43161;BME280;40968;52.342;5.528;2023-04-25T00:41:53;101028.41;;;5.93;71.02
43161;BME280;40968;52.342;5.528;2023-04-25T00:44:20;101098.63;;;6.25;71.14
43161;BME280;40968;52.342;5.528;2023-04-25T00:46:47;101083.28;;;6.13;71.26
43161;BME280;40968;52.342;5.528;2023-04-25T00:49:14;101038.69;;;5.83;71.28
43161;BME280;40968;52.342;5.528;2023-04-25T00:51:42;101051.44;;;5.94;71.52
43161;BME280;40968;52.342;5.528;2023-04-25T00:54:10;100863.75;;;4.85;71.25
43161;BME280;40968;52.342;5.528;2023-04-25T00:56:37;101066.31;;;5.98;70.64
43161;BME280;40968;52.342;5.528;2023-04-25T00:59:06;101054.31;;;5.89;70.60
43161;BME280;40968;52.342;5.528;2023-04-25T01:01:32;100953.72;;;5.27;70.29
43161;BME280;40968;52.342;5.528;2023-04-25T01:04:00;100979.84;;;5.37;70.86
43161;BME280;40968;52.342;5.528;2023-04-25T01:06:27;100863.75;;;4.67;70.73
43161;BME280;40968;52.342;5.528;2023-04-25T01:08:54;100996.13;;;5.48;70.59
43161;BME280;40968;52.342;5.528;2023-04-25T01:11:21;101061.66;;;5.84;70.38
43161;BME280;40968;52.342;5.528;2023-04-25T01:13:47;100893.03;;;4.83;69.90
43161;BME280;40968;52.342;5.528;2023-04-25T01:16:15;101074.75;;;5.89;69.89
43161;BME280;40968;52.342;5.528;2023-04-25T01:18:42;101009.25;;;5.51;70.01
43161;BME280;40968;52.342;5.528;2023-04-25T01:21:12;101075.59;;;5.89;70.36
43161;BME280;40968;52.342;5.528;2023-04-25T01:23:40;100981.09;;;5.29;70.24
43161;BME280;40968;52.342;5.528;2023-04-25T01:26:08;101092.97;;;5.96;70.76
43161;BME280;40968;52.342;5.528;2023-04-25T01:28:35;101024.28;;;5.52;70.92
43161;BME280;40968;52.342;5.528;2023-04-25T01:31:02;101112.25;;;6.02;69.91
43161;BME280;40968;52.342;5.528;2023-04-25T01:33:29;101111.59;;;5.96;69.62
43161;BME280;40968;52.342;5.528;2023-04-25T01:35:56;101062.91;;;5.59;69.79
43161;BME280;40968;52.342;5.528;2023-04-25T01:38:24;101080.28;;;5.67;69.54
43161;BME280;40968;52.342;5.528;2023-04-25T01:40:51;101121.78;;;5.88;69.70
43161;BME280;40968;52.342;5.528;2023-04-25T01:43:18;101040.50;;;5.28;69.63
43161;BME280;40968;52.342;5.528;2023-04-25T01:45:44;101065.25;;;5.48;69.85
43161;BME280;40968;52.342;5.528;2023-04-25T01:48:13;101085.25;;;5.55;69.87
43161;BME280;40968;52.342;5.528;2023-04-25T01:50:42;101127.59;;;5.77;70.05
43161;BME280;40968;52.342;5.528;2023-04-25T01:53:09;101128.63;;;5.75;69.93
43161;BME280;40968;52.342;5.528;2023-04-25T01:55:38;101127.84;;;5.73;70.02
43161;BME280;40968;52.342;5.528;2023-04-25T01:58:05;101081.31;;;5.45;69.87
43161;BME280;40968;52.342;5.528;2023-04-25T02:00:34;101131.59;;;5.69;70.07
43161;BME280;40968;52.342;5.528;2023-04-25T02:03:03;101043.91;;;5.13;69.95
43161;BME280;40968;52.342;5.528;2023-04-25T02:05:34;101100.09;;;5.42;69.88
43161;BME280;40968;52.342;5.528;2023-04-25T02:08:00;101085.59;;;5.30;69.86
43161;BME280;40968;52.342;5.528;2023-04-25T02:10:27;101141.72;;;5.60;70.01
43161;BME280;40968;52.342;5.528;2023-04-25T02:12:56;101082.78;;;5.33;70.37
43161;BME280;40968;52.342;5.528;2023-04-25T02:15:23;101093.66;;;5.28;70.25
43161;BME280;40968;52.342;5.528;2023-04-25T02:17:49;101092.72;;;5.29;70.26
43161;BME280;40968;52.342;5.528;2023-04-25T02:20:18;101138.44;;;5.55;70.45
43161;BME280;40968;52.342;5.528;2023-04-25T02:22:45;101099.91;;;5.27;70.53
43161;BME280;40968;52.342;5.528;2023-04-25T02:25:12;101093.72;;;5.27;70.60
43161;BME280;40968;52.342;5.528;2023-04-25T02:27:39;101136.78;;;5.53;70.60
43161;BME280;40968;52.342;5.528;2023-04-25T02:30:08;101069.69;;;5.11;70.39
43161;BME280;40968;52.342;5.528;2023-04-25T02:32:34;101074.94;;;5.12;70.49
43161;BME280;40968;52.342;5.528;2023-04-25T02:35:01;101117.13;;;5.38;70.20
43161;BME280;40968;52.342;5.528;2023-04-25T02:37:29;101091.34;;;5.21;70.50
43161;BME280;40968;52.342;5.528;2023-04-25T02:39:56;101095.81;;;5.20;70.52
43161;BME280;40968;52.342;5.528;2023-04-25T02:42:22;100993.25;;;4.60;70.57
43161;BME280;40968;52.342;5.528;2023-04-25T02:44:49;101143.44;;;5.44;70.97
43161;BME280;40968;52.342;5.528;2023-04-25T02:47:17;101122.72;;;5.31;70.94
43161;BME280;40968;52.342;5.528;2023-04-25T02:49:43;101108.38;;;5.17;71.00
43161;BME280;40968;52.342;5.528;2023-04-25T02:52:10;101083.38;;;5.02;70.92
43161;BME280;40968;52.342;5.528;2023-04-25T02:54:37;101149.19;;;5.35;71.28
43161;BME280;40968;52.342;5.528;2023-04-25T02:57:04;101113.25;;;5.07;71.43
43161;BME280;40968;52.342;5.528;2023-04-25T02:59:31;101104.63;;;5.02;71.39
43161;BME280;40968;52.342;5.528;2023-04-25T03:01:57;101144.16;;;5.28;71.59
43161;BME280;40968;52.342;5.528;2023-04-25T03:04:25;101148.66;;;5.26;71.65
43161;BME280;40968;52.342;5.528;2023-04-25T03:06:52;101141.69;;;5.24;71.83
43161;BME280;40968;52.342;5.528;2023-04-25T03:09:19;101117.00;;;5.03;71.88
43161;BME280;40968;52.342;5.528;2023-04-25T03:11:46;101093.88;;;4.86;72.00
43161;BME280;40968;52.342;5.528;2023-04-25T03:14:13;101108.69;;;4.91;72.01
43161;BME280;40968;52.342;5.528;2023-04-25T03:16:40;101048.50;;;4.52;72.02
43161;BME280;40968;52.342;5.528;2023-04-25T03:19:07;101040.00;;;4.44;72.28
43161;BME280;40968;52.342;5.528;2023-04-25T03:21:35;101116.69;;;4.90;72.34
43161;BME280;40968;52.342;5.528;2023-04-25T03:24:04;101158.22;;;5.11;72.75
43161;BME280;40968;52.342;5.528;2023-04-25T03:26:31;101158.22;;;5.11;72.83
43161;BME280;40968;52.342;5.528;2023-04-25T03:28:57;100837.03;;;3.18;72.77
43161;BME280;40968;52.342;5.528;2023-04-25T03:31:24;101116.19;;;4.81;73.07
43161;BME280;40968;52.342;5.528;2023-04-25T03:33:51;101162.81;;;5.08;73.21
43161;BME280;40968;52.342;5.528;2023-04-25T03:36:17;101116.53;;;4.74;73.22
43161;BME280;40968;52.342;5.528;2023-04-25T03:38:45;101113.22;;;4.69;73.46
43161;BME280;40968;52.342;5.528;2023-04-25T03:41:13;101177.16;;;5.04;73.91
43161;BME280;40968;52.342;5.528;2023-04-25T03:43:40;101056.50;;;4.31;74.04
43161;BME280;40968;52.342;5.528;2023-04-25T03:46:06;101071.75;;;4.47;73.94
43161;BME280;40968;52.342;5.528;2023-04-25T03:48:33;101101.97;;;4.63;73.88
43161;BME280;40968;52.342;5.528;2023-04-25T03:51:00;101134.88;;;4.80;74.03
43161;BME280;40968;52.342;5.528;2023-04-25T03:53:26;101150.19;;;4.94;74.17
43161;BME280;40968;52.342;5.528;2023-04-25T03:55:54;101045.22;;;4.26;74.43
43161;BME280;40968;52.342;5.528;2023-04-25T03:58:21;101120.00;;;4.76;74.18
43161;BME280;40968;52.342;5.528;2023-04-25T04:00:48;101179.47;;;5.11;74.09
43161;BME280;40968;52.342;5.528;2023-04-25T04:03:14;101077.91;;;4.47;73.61
43161;BME280;40968;52.342;5.528;2023-04-25T04:05:41;101180.22;;;5.15;72.71
43161;BME280;40968;52.342;5.528;2023-04-25T04:08:08;101186.22;;;5.19;72.31
43161;BME280;40968;52.342;5.528;2023-04-25T04:10:34;101172.44;;;5.10;72.47
43161;BME280;40968;52.342;5.528;2023-04-25T04:13:02;100976.63;;;3.98;72.85
43161;BME280;40968;52.342;5.528;2023-04-25T04:15:29;101153.53;;;4.97;73.14
43161;BME280;40968;52.342;5.528;2023-04-25T04:17:58;101198.31;;;5.26;73.49
43161;BME280;40968;52.342;5.528;2023-04-25T04:20:28;101117.28;;;4.77;73.47
43161;BME280;40968;52.342;5.528;2023-04-25T04:22:54;101194.91;;;5.22;73.56
43161;BME280;40968;52.342;5.528;2023-04-25T04:25:21;101200.22;;;5.22;73.41
43161;BME280;40968;52.342;5.528;2023-04-25T04:27:47;101146.13;;;4.85;73.52
43161;BME280;40968;52.342;5.528;2023-04-25T04:30:18;101116.97;;;4.64;72.19
43161;BME280;40968;52.342;5.528;2023-04-25T04:32:45;101192.69;;;5.13;71.93
43161;BME280;40968;52.342;5.528;2023-04-25T04:35:11;101104.63;;;4.63;71.93
43161;BME280;40968;52.342;5.528;2023-04-25T04:37:38;101212.66;;;5.22;71.13
43161;BME280;40968;52.342;5.528;2023-04-25T04:40:06;101160.06;;;4.90;71.20
43161;BME280;40968;52.342;5.528;2023-04-25T04:42:33;100980.69;;;3.86;71.20
43161;BME280;40968;52.342;5.528;2023-04-25T04:45:01;101222.16;;;5.27;71.18
43161;BME280;40968;52.342;5.528;2023-04-25T04:47:30;101215.06;;;5.28;71.27
43161;BME280;40968;52.342;5.528;2023-04-25T04:49:57;101180.63;;;5.06;71.14
43161;BME280;40968;52.342;5.528;2023-04-25T04:52:24;101229.78;;;5.35;71.06
43161;BME280;40968;52.342;5.528;2023-04-25T04:54:50;101118.53;;;4.69;70.93
43161;BME280;40968;52.342;5.528;2023-04-25T04:57:17;101138.28;;;4.82;70.68
43161;BME280;40968;52.342;5.528;2023-04-25T04:59:43;101128.38;;;4.67;71.00
43161;BME280;40968;52.342;5.528;2023-04-25T05:02:11;101023.75;;;4.12;71.07
43161;BME280;40968;52.342;5.528;2023-04-25T05:04:39;101206.63;;;5.18;71.45
43161;BME280;40968;52.342;5.528;2023-04-25T05:07:06;101204.63;;;5.23;71.37
43161;BME280;40968;52.342;5.528;2023-04-25T05:09:32;101206.56;;;5.20;71.43
43161;BME280;40968;52.342;5.528;2023-04-25T05:11:59;101254.00;;;5.48;71.29
43161;BME280;40968;52.342;5.528;2023-04-25T05:14:26;101220.38;;;5.28;71.43
43161;BME280;40968;52.342;5.528;2023-04-25T05:16:53;101234.25;;;5.35;71.43
43161;BME280;40968;52.342;5.528;2023-04-25T05:19:19;101264.41;;;5.53;71.25
43161;BME280;40968;52.342;5.528;2023-04-25T05:21:47;100974.44;;;3.67;71.04
43161;BME280;40968;52.342;5.528;2023-04-25T05:24:14;101280.22;;;5.56;71.11
43161;BME280;40968;52.342;5.528;2023-04-25T05:26:41;101071.44;;;4.34;70.83
43161;BME280;40968;52.342;5.528;2023-04-25T05:29:07;101240.56;;;5.32;70.83
43161;BME280;40968;52.342;5.528;2023-04-25T05:31:35;101204.25;;;5.12;70.73
43161;BME280;40968;52.342;5.528;2023-04-25T05:34:02;100963.75;;;3.70;70.46
43161;BME280;40968;52.342;5.528;2023-04-25T05:36:28;101283.22;;;5.67;70.52
43161;BME280;40968;52.342;5.528;2023-04-25T05:38:57;101292.81;;;5.71;70.43
43161;BME280;40968;52.342;5.528;2023-04-25T05:41:24;101285.63;;;5.73;70.22
43161;BME280;40968;52.342;5.528;2023-04-25T05:43:50;101232.09;;;5.43;70.23
43161;BME280;40968;52.342;5.528;2023-04-25T05:46:17;101296.06;;;5.78;70.15
43161;BME280;40968;52.342;5.528;2023-04-25T05:48:43;101296.06;;;5.78;70.34
43161;BME280;40968;52.342;5.528;2023-04-25T05:51:10;101237.56;;;5.40;70.07
43161;BME280;40968;52.342;5.528;2023-04-25T05:53:36;101237.41;;;5.43;69.82
43161;BME280;40968;52.342;5.528;2023-04-25T05:56:05;101299.66;;;5.77;68.73
43161;BME280;40968;52.342;5.528;2023-04-25T05:58:31;101257.66;;;5.45;68.23
43161;BME280;40968;52.342;5.528;2023-04-25T06:00:58;101310.44;;;5.74;68.38
43161;BME280;40968;52.342;5.528;2023-04-25T06:03:24;101006.28;;;3.87;68.13
43161;BME280;40968;52.342;5.528;2023-04-25T06:05:51;101265.97;;;5.38;68.28
43161;BME280;40968;52.342;5.528;2023-04-25T06:08:17;101243.25;;;5.30;68.70
43161;BME280;40968;52.342;5.528;2023-04-25T06:10:44;101317.97;;;5.83;68.61
43161;BME280;40968;52.342;5.528;2023-04-25T06:13:12;101311.13;;;5.77;68.25
43161;BME280;40968;52.342;5.528;2023-04-25T06:15:39;101330.06;;;5.90;68.08
43161;BME280;40968;52.342;5.528;2023-04-25T06:18:05;101334.28;;;5.94;68.39
43161;BME280;40968;52.342;5.528;2023-04-25T06:20:32;101327.09;;;5.96;67.95
43161;BME280;40968;52.342;5.528;2023-04-25T06:22:58;101325.13;;;6.02;67.67
43161;BME280;40968;52.342;5.528;2023-04-25T06:25:25;101262.97;;;5.64;67.52
43161;BME280;40968;52.342;5.528;2023-04-25T06:27:52;101280.94;;;5.78;67.44
43161;BME280;40968;52.342;5.528;2023-04-25T06:30:20;101341.22;;;6.18;66.92
43161;BME280;40968;52.342;5.528;2023-04-25T06:32:48;101271.31;;;5.76;66.49
43161;BME280;40968;52.342;5.528;2023-04-25T06:35:15;101293.88;;;5.86;66.11
43161;BME280;40968;52.342;5.528;2023-04-25T06:37:41;101311.91;;;6.00;65.26
43161;BME280;40968;52.342;5.528;2023-04-25T06:40:08;101356.91;;;6.24;64.35
43161;BME280;40968;52.342;5.528;2023-04-25T06:42:35;101357.13;;;6.19;64.16
43161;BME280;40968;52.342;5.528;2023-04-25T06:45:02;101338.91;;;6.10;64.08
43161;BME280;40968;52.342;5.528;2023-04-25T06:47:30;101347.56;;;6.15;64.28
43161;BME280;40968;52.342;5.528;2023-04-25T06:49:57;101293.31;;;5.79;64.94
43161;BME280;40968;52.342;5.528;2023-04-25T06:52:24;101262.34;;;5.59;64.67
43161;BME280;40968;52.342;5.528;2023-04-25T06:54:50;101318.41;;;5.93;64.69
43161;BME280;40968;52.342;5.528;2023-04-25T06:57:17;101360.34;;;6.26;65.04
43161;BME280;40968;52.342;5.528;2023-04-25T06:59:43;101338.47;;;6.19;64.58
43161;BME280;40968;52.342;5.528;2023-04-25T07:02:10;101363.19;;;6.40;63.82
43161;BME280;40968;52.342;5.528;2023-04-25T07:04:38;101132.50;;;5.12;64.27
43161;BME280;40968;52.342;5.528;2023-04-25T07:07:05;101366.06;;;6.55;63.83
43161;BME280;40968;52.342;5.528;2023-04-25T07:09:31;101370.16;;;6.62;63.80
43161;BME280;40968;52.342;5.528;2023-04-25T07:11:59;101229.56;;;5.78;63.51
43161;BME280;40968;52.342;5.528;2023-04-25T07:14:26;101367.75;;;6.75;63.84
43161;BME280;40968;52.342;5.528;2023-04-25T07:16:52;101371.06;;;6.80;63.15
43161;BME280;40968;52.342;5.528;2023-04-25T07:19:21;101256.34;;;6.11;63.56
43161;BME280;40968;52.342;5.528;2023-04-25T07:21:50;101383.28;;;6.84;63.28
43161;BME280;40968;52.342;5.528;2023-04-25T07:24:16;101044.50;;;4.81;63.22
43161;BME280;40968;52.342;5.528;2023-04-25T07:26:43;101293.28;;;6.37;63.07
43161;BME280;40968;52.342;5.528;2023-04-25T07:29:10;101392.22;;;7.01;63.50
43161;BME280;40968;52.342;5.528;2023-04-25T07:31:36;101190.44;;;5.80;63.27
43161;BME280;40968;52.342;5.528;2023-04-25T07:34:03;101367.50;;;6.79;62.02
43161;BME280;40968;52.342;5.528;2023-04-25T07:36:31;101416.19;;;7.01;61.71
43161;BME280;40968;52.342;5.528;2023-04-25T07:38:59;101390.00;;;6.91;61.61
43161;BME280;40968;52.342;5.528;2023-04-25T07:41:25;101371.06;;;6.80;61.50
43161;BME280;40968;52.342;5.528;2023-04-25T07:43:52;101411.50;;;6.88;61.20
43161;BME280;40968;52.342;5.528;2023-04-25T07:46:18;101366.88;;;6.38;60.61
43161;BME280;40968;52.342;5.528;2023-04-25T07:48:45;101423.50;;;6.60;61.08
43161;BME280;40968;52.342;5.528;2023-04-25T07:51:11;101363.25;;;6.21;60.13
43161;BME280;40968;52.342;5.528;2023-04-25T07:53:38;101380.91;;;6.41;60.12
43161;BME280;40968;52.342;5.528;2023-04-25T07:56:07;101357.47;;;6.30;60.69
43161;BME280;40968;52.342;5.528;2023-04-25T07:58:34;101330.03;;;6.28;60.51
43161;BME280;40968;52.342;5.528;2023-04-25T08:01:00;101417.28;;;6.79;58.41
43161;BME280;40968;52.342;5.528;2023-04-25T08:03:27;101425.03;;;6.84;57.64
43161;BME280;40968;52.342;5.528;2023-04-25T08:05:54;101197.88;;;5.54;55.80
43161;BME280;40968;52.342;5.528;2023-04-25T08:08:20;101367.50;;;6.43;54.66
43161;BME280;40968;52.342;5.528;2023-04-25T08:10:47;101338.03;;;6.28;55.72
43161;BME280;40968;52.342;5.528;2023-04-25T08:13:15;101438.31;;;7.03;54.80
43161;BME280;40968;52.342;5.528;2023-04-25T08:15:42;101398.84;;;6.74;55.47
43161;BME280;40968;52.342;5.528;2023-04-25T08:18:08;101254.78;;;5.88;55.97
43161;BME280;40968;52.342;5.528;2023-04-25T08:20:35;101442.06;;;6.99;56.55
43161;BME280;40968;52.342;5.528;2023-04-25T08:23:02;101384.31;;;6.62;57.19
43161;BME280;40968;52.342;5.528;2023-04-25T08:25:28;101258.94;;;5.94;57.61
43161;BME280;40968;52.342;5.528;2023-04-25T08:27:55;101406.31;;;6.85;58.26
43161;BME280;40968;52.342;5.528;2023-04-25T08:30:23;101428.38;;;7.06;57.96
43161;BME280;40968;52.342;5.528;2023-04-25T08:32:50;101322.50;;;6.38;59.00
43161;BME280;40968;52.342;5.528;2023-04-25T08:35:17;101459.19;;;7.29;59.26
43161;BME280;40968;52.342;5.528;2023-04-25T08:37:43;101253.75;;;6.10;58.92
43161;BME280;40968;52.342;5.528;2023-04-25T08:40:12;101457.56;;;7.44;58.21
43161;BME280;40968;52.342;5.528;2023-04-25T08:42:41;101485.09;;;7.62;56.43
43161;BME280;40968;52.342;5.528;2023-04-25T08:45:08;101276.22;;;6.41;54.97
43161;BME280;40968;52.342;5.528;2023-04-25T08:47:37;101433.63;;;7.43;54.98
43161;BME280;40968;52.342;5.528;2023-04-25T08:50:05;101474.69;;;7.74;55.77
43161;BME280;40968;52.342;5.528;2023-04-25T08:52:36;101438.53;;;7.68;56.72
43161;BME280;40968;52.342;5.528;2023-04-25T08:55:04;101237.38;;;6.54;55.97
43161;BME280;40968;52.342;5.528;2023-04-25T08:57:34;101466.91;;;7.87;55.73
43161;BME280;40968;52.342;5.528;2023-04-25T09:00:01;101517.28;;;8.10;54.07
43161;BME280;40968;52.342;5.528;2023-04-25T09:02:29;101502.91;;;8.13;54.39
43161;BME280;40968;52.342;5.528;2023-04-25T09:04:57;101272.38;;;6.82;55.37
43161;BME280;40968;52.342;5.528;2023-04-25T09:07:23;101449.31;;;8.00;55.15
43161;BME280;40968;52.342;5.528;2023-04-25T09:09:51;101339.50;;;7.41;54.05
43161;BME280;40968;52.342;5.528;2023-04-25T09:12:18;101514.28;;;8.50;54.30
43161;BME280;40968;52.342;5.528;2023-04-25T09:15:01;101227.50;;;6.74;54.90
43161;BME280;40968;52.342;5.528;2023-04-25T09:17:28;101471.47;;;8.18;56.65
43161;BME280;40968;52.342;5.528;2023-04-25T09:19:56;101549.38;;;8.26;56.84
43161;BME280;40968;52.342;5.528;2023-04-25T09:22:31;101532.94;;;7.83;58.46
43161;BME280;40968;52.342;5.528;2023-04-25T09:25:02;101550.28;;;7.92;59.89
43161;BME280;40968;52.342;5.528;2023-04-25T09:27:29;101405.59;;;6.82;59.86
43161;BME280;40968;52.342;5.528;2023-04-25T09:29:57;101572.50;;;7.57;59.85
43161;BME280;40968;52.342;5.528;2023-04-25T09:32:24;101493.16;;;6.89;60.34
43161;BME280;40968;52.342;5.528;2023-04-25T09:34:52;101479.94;;;6.69;61.64
43161;BME280;40968;52.342;5.528;2023-04-25T09:37:22;101587.78;;;7.17;62.58
43161;BME280;40968;52.342;5.528;2023-04-25T09:39:50;101524.50;;;6.84;63.93
43161;BME280;40968;52.342;5.528;2023-04-25T09:42:17;101456.97;;;6.47;64.95
43161;BME280;40968;52.342;5.528;2023-04-25T09:44:44;101581.91;;;7.28;64.82
43161;BME280;40968;52.342;5.528;2023-04-25T09:47:12;101342.41;;;5.91;63.67
43161;BME280;40968;52.342;5.528;2023-04-25T09:49:40;101542.66;;;7.12;62.74
43161;BME280;40968;52.342;5.528;2023-04-25T09:52:09;101464.75;;;6.71;58.53
43161;BME280;40968;52.342;5.528;2023-04-25T09:54:37;101588.63;;;7.54;57.67
43161;BME280;40968;52.342;5.528;2023-04-25T09:57:10;101532.69;;;7.35;58.21
43161;BME280;40968;52.342;5.528;2023-04-25T09:59:41;101375.56;;;6.60;55.29
43161;BME280;40968;52.342;5.528;2023-04-25T10:02:09;101590.88;;;7.99;54.70
43161;BME280;40968;52.342;5.528;2023-04-25T10:04:37;101530.25;;;7.83;53.60
43161;BME280;40968;52.342;5.528;2023-04-25T10:07:05;101389.56;;;7.18;53.87
43161;BME280;40968;52.342;5.528;2023-04-25T10:09:33;101451.16;;;7.82;53.67
43161;BME280;40968;52.342;5.528;2023-04-25T10:12:04;101508.94;;;8.17;52.66
43161;BME280;40968;52.342;5.528;2023-04-25T10:14:31;101528.22;;;8.39;53.37
43161;BME280;40968;52.342;5.528;2023-04-25T10:16:58;101584.69;;;8.99;53.74
43161;BME280;40968;52.342;5.528;2023-04-25T10:19:25;101587.22;;;9.02;53.43
43161;BME280;40968;52.342;5.528;2023-04-25T10:21:58;101584.63;;;9.16;53.74
43161;BME280;40968;52.342;5.528;2023-04-25T10:24:28;101587.56;;;9.27;53.71
43161;BME280;40968;52.342;5.528;2023-04-25T10:26:56;101589.78;;;9.35;53.12
43161;BME280;40968;52.342;5.528;2023-04-25T10:29:25;101586.31;;;9.49;52.31
43161;BME280;40968;52.342;5.528;2023-04-25T10:31:52;101589.41;;;9.57;51.38
43161;BME280;40968;52.342;5.528;2023-04-25T10:34:19;101594.19;;;9.83;50.96
43161;BME280;40968;52.342;5.528;2023-04-25T10:36:50;101580.97;;;9.79;51.17
43161;BME280;40968;52.342;5.528;2023-04-25T10:39:22;101565.34;;;9.72;48.79
43161;BME280;40968;52.342;5.528;2023-04-25T10:41:53;101500.72;;;9.33;48.96
43161;BME280;40968;52.342;5.528;2023-04-25T10:44:21;101524.41;;;9.55;49.13
43161;BME280;40968;52.342;5.528;2023-04-25T10:46:49;101337.09;;;8.66;48.95
43161;BME280;40968;52.342;5.528;2023-04-25T10:49:29;101551.09;;;10.02;50.00
43161;BME280;40968;52.342;5.528;2023-04-25T10:52:11;101518.38;;;10.11;47.20
43161;BME280;40968;52.342;5.528;2023-04-25T10:54:40;101497.69;;;9.70;48.17
43161;BME280;40968;52.342;5.528;2023-04-25T10:57:07;101596.16;;;10.09;49.49
43161;BME280;40968;52.342;5.528;2023-04-25T10:59:34;101483.81;;;9.33;48.87
43161;BME280;40968;52.342;5.528;2023-04-25T11:02:11;101548.00;;;9.33;49.63
43161;BME280;40968;52.342;5.528;2023-04-25T11:04:38;101599.09;;;9.44;46.66
43161;BME280;40968;52.342;5.528;2023-04-25T11:07:13;101320.66;;;8.09;47.76
43161;BME280;40968;52.342;5.528;2023-04-25T11:09:42;101544.97;;;9.85;47.72
43161;BME280;40968;52.342;5.528;2023-04-25T11:12:11;101436.16;;;9.09;49.51
43161;BME280;40968;52.342;5.528;2023-04-25T11:14:38;101531.63;;;9.23;49.17
43161;BME280;40968;52.342;5.528;2023-04-25T11:17:06;101608.84;;;9.45;50.17
43161;BME280;40968;52.342;5.528;2023-04-25T11:19:33;101601.00;;;9.26;50.50
43161;BME280;40968;52.342;5.528;2023-04-25T11:22:00;101579.69;;;9.08;50.26
43161;BME280;40968;52.342;5.528;2023-04-25T11:24:28;101464.41;;;8.67;50.41
43161;BME280;40968;52.342;5.528;2023-04-25T11:26:55;101614.91;;;9.79;48.63
43161;BME280;40968;52.342;5.528;2023-04-25T11:29:22;101600.47;;;9.51;46.76
43161;BME280;40968;52.342;5.528;2023-04-25T11:31:49;101560.97;;;9.24;46.19
43161;BME280;40968;52.342;5.528;2023-04-25T11:34:18;101379.53;;;8.56;44.32
43161;BME280;40968;52.342;5.528;2023-04-25T11:36:45;101611.94;;;10.44;44.76
43161;BME280;40968;52.342;5.528;2023-04-25T11:39:12;101605.81;;;10.71;42.33
43161;BME280;40968;52.342;5.528;2023-04-25T11:41:41;101452.94;;;9.86;43.65
43161;BME280;40968;52.342;5.528;2023-04-25T11:44:07;101584.44;;;10.99;42.05
43161;BME280;40968;52.342;5.528;2023-04-25T11:46:34;101616.94;;;11.21;40.84
43161;BME280;40968;52.342;5.528;2023-04-25T11:49:01;101617.50;;;11.26;41.50
43161;BME280;40968;52.342;5.528;2023-04-25T11:51:29;101560.00;;;11.03;40.11
43161;BME280;40968;52.342;5.528;2023-04-25T11:53:56;101535.75;;;11.05;40.64
43161;BME280;40968;52.342;5.528;2023-04-25T11:56:22;101626.97;;;11.74;41.36
43161;BME280;40968;52.342;5.528;2023-04-25T11:58:56;101629.44;;;11.77;41.02
43161;BME280;40968;52.342;5.528;2023-04-25T12:01:27;101175.47;;;9.16;42.20
43161;BME280;40968;52.342;5.528;2023-04-25T12:03:54;101612.31;;;11.92;41.47
43161;BME280;40968;52.342;5.528;2023-04-25T12:06:21;101527.06;;;11.69;40.66
43161;BME280;40968;52.342;5.528;2023-04-25T12:09:03;101597.13;;;12.32;41.39
43161;BME280;40968;52.342;5.528;2023-04-25T12:11:30;101658.66;;;12.09;43.23
43161;BME280;40968;52.342;5.528;2023-04-25T12:14:02;101553.19;;;10.98;43.30
43161;BME280;40968;52.342;5.528;2023-04-25T12:16:28;101646.47;;;11.21;45.36
43161;BME280;40968;52.342;5.528;2023-04-25T12:18:55;101641.66;;;10.85;45.10
43161;BME280;40968;52.342;5.528;2023-04-25T12:21:22;101576.75;;;10.20;45.65
43161;BME280;40968;52.342;5.528;2023-04-25T12:23:48;101595.03;;;10.28;44.30
43161;BME280;40968;52.342;5.528;2023-04-25T12:26:18;101563.91;;;9.96;44.67
43161;BME280;40968;52.342;5.528;2023-04-25T12:28:45;101620.00;;;10.14;44.19
43161;BME280;40968;52.342;5.528;2023-04-25T12:31:13;101649.47;;;10.59;43.78
43161;BME280;40968;52.342;5.528;2023-04-25T12:33:41;101594.34;;;10.69;44.53
43161;BME280;40968;52.342;5.528;2023-04-25T12:36:09;101671.53;;;10.93;47.36
43161;BME280;40968;52.342;5.528;2023-04-25T12:38:38;101561.31;;;10.54;46.58
43161;BME280;40968;52.342;5.528;2023-04-25T12:41:05;101670.91;;;11.31;46.81
43161;BME280;40968;52.342;5.528;2023-04-25T12:43:34;101658.31;;;11.46;45.93
43161;BME280;40968;52.342;5.528;2023-04-25T12:46:01;101659.78;;;11.92;45.10
43161;BME280;40968;52.342;5.528;2023-04-25T12:48:27;101579.09;;;11.26;45.30
43161;BME280;40968;52.342;5.528;2023-04-25T12:50:54;101641.25;;;11.74;44.19
43161;BME280;40968;52.342;5.528;2023-04-25T12:53:21;101671.75;;;11.73;42.04
43161;BME280;40968;52.342;5.528;2023-04-25T12:55:49;101650.31;;;11.86;41.85
43161;BME280;40968;52.342;5.528;2023-04-25T12:58:16;101657.72;;;12.10;41.21
43161;BME280;40968;52.342;5.528;2023-04-25T13:00:45;101665.41;;;12.42;41.04